Time;durP1;ratioP1;P1;durP2;ratioP2;P2;SDS_P1;SDS_P2;PMS_P1;PMS_P2;Temp;Humidity;BMP_temperature;BMP_pressure;BME280_temperature;BME280_humidity;BME280_pressure;Samples;Min_cycle;Max_cycle;Signal;HPM_P1;HPM_P2
2023/05/02 00:08:22;;;;;;;10.73;6.88;;;;;;;10.75;61.44;99922.94;31108882;28;99669;-65
2023/05/02 00:23:22;;;;;;;9.63;6.13;;;;;;;10.75;61.94;99906.97;31108082;28;96689;-66
2023/05/02 00:38:23;;;;;;;8.95;6.53;;;;;;;10.66;62.79;99908.03;31107072;28;96913;-65
2023/05/02 00:53:23;;;;;;;11.82;6.85;;;;;;;10.45;63.11;99888.19;31104779;28;97541;-66
2023/05/02 01:08:39;;;;;;;10.32;6.70;;;;;;;10.25;63.53;99887.81;31103870;28;97331;-66
2023/05/02 01:24:09;;;;;;;10.00;6.33;;;;;;;10.14;64.22;99897.03;31101663;28;97671;-66
2023/05/02 01:39:14;;;;;;;9.00;6.57;;;;;;;10.15;64.50;99900.50;31071326;28;96785;-64
2023/05/02 01:54:17;;;;;;;8.83;5.93;;;;;;;10.22;65.27;99905.97;30975470;28;96778;-65
2023/05/02 02:09:17;;;;;;;9.43;6.40;;;;;;;10.24;65.10;99899.47;30975793;28;96648;-66
2023/05/02 02:24:21;;;;;;;10.27;5.97;;;;;;;10.25;65.24;99918.91;30974242;28;97062;-64
2023/05/02 02:39:40;;;;;;;9.40;5.77;;;;;;;10.14;65.13;99939.59;30987927;28;98431;-65
2023/05/02 02:54:48;;;;;;;8.10;6.23;;;;;;;10.09;65.76;99952.59;30991306;28;96810;-66
2023/05/02 03:09:49;;;;;;;10.23;6.47;;;;;;;10.04;66.50;99970.09;30987983;28;97458;-66
2023/05/02 03:24:50;;;;;;;6.47;4.90;;;;;;;10.45;66.20;99965.44;30987866;28;96818;-65
2023/05/02 03:39:50;;;;;;;8.07;4.00;;;;;;;11.00;65.78;100005.38;30986691;28;97377;-66
2023/05/02 03:54:50;;;;;;;8.63;4.03;;;;;;;11.34;64.86;100017.47;30984135;28;96813;-65
2023/05/02 04:09:51;;;;;;;4.97;3.35;;;;;;;11.70;64.17;100035.50;30984078;28;109658;-65
2023/05/02 04:24:52;;;;;;;6.35;3.83;;;;;;;11.97;64.06;100067.94;30980497;28;96715;-66
2023/05/02 04:39:52;;;;;;;9.10;4.07;;;;;;;11.89;64.98;100098.22;30980771;28;97712;-65
2023/05/02 04:54:53;;;;;;;6.88;4.07;;;;;;;11.85;65.03;100112.91;30976681;28;96730;-66
2023/05/02 05:09:53;;;;;;;9.40;4.93;;;;;;;11.86;66.50;100111.91;30956068;28;105051;-61
2023/05/02 05:24:53;;;;;;;7.45;4.53;;;;;;;11.74;66.68;100132.88;30977017;28;107316;-66
2023/05/02 05:39:54;;;;;;;7.38;4.63;;;;;;;11.73;67.74;100147.22;30968043;28;97279;-66
2023/05/02 05:54:58;;;;;;;8.88;5.45;;;;;;;11.83;68.49;100160.31;30949405;28;97371;-66
2023/05/02 06:09:58;;;;;;;9.63;5.60;;;;;;;12.18;68.88;100171.41;30858429;28;96708;-62
2023/05/02 06:24:59;;;;;;;8.00;5.05;;;;;;;12.76;69.19;100193.00;30868176;28;97602;-63
2023/05/02 06:40:00;;;;;;;8.20;4.93;;;;;;;12.83;68.35;100215.28;30869630;28;96761;-63
2023/05/02 06:55:00;;;;;;;9.35;5.43;;;;;;;13.29;68.38;100232.16;30885005;28;97315;-62
2023/05/02 07:10:02;;;;;;;9.45;6.38;;;;;;;13.51;67.90;100255.28;30972107;28;104119;-66
2023/05/02 07:25:03;;;;;;;6.90;5.50;;;;;;;14.19;67.60;100254.97;30982722;28;96736;-62
2023/05/02 07:40:04;;;;;;;10.48;5.63;;;;;;;14.70;66.65;100266.53;30984238;28;96832;-63
2023/05/02 07:55:04;;;;;;;8.20;5.50;;;;;;;15.74;64.86;100281.69;30981090;28;96897;-65
2023/05/02 08:10:06;;;;;;;7.82;5.72;;;;;;;16.46;63.74;100297.38;30981068;28;96840;-62
2023/05/02 08:25:06;;;;;;;7.77;5.47;;;;;;;17.18;61.08;100300.22;30980813;28;96739;-63
2023/05/02 08:40:10;;;;;;;6.85;5.07;;;;;;;18.04;60.08;100314.41;30979160;28;97274;-63
2023/05/02 08:55:11;;;;;;;8.23;5.93;;;;;;;17.72;55.97;100335.03;30868837;28;97829;-62
2023/05/02 09:10:12;;;;;;;11.35;5.50;;;;;;;17.66;55.13;100349.34;30854306;28;96835;-62
2023/05/02 09:25:13;;;;;;;8.73;5.57;;;;;;;17.96;52.67;100362.31;30853201;28;97303;-63
2023/05/02 09:40:14;;;;;;;7.30;5.47;;;;;;;18.35;50.93;100377.44;30856374;28;97438;-63
2023/05/02 09:55:21;;;;;;;8.07;6.45;;;;;;;19.18;49.57;100389.09;30987269;28;97691;-64
2023/05/02 10:10:22;;;;;;;11.27;7.00;;;;;;;20.10;47.68;100393.66;30985885;28;96924;-62
2023/05/02 10:25:22;;;;;;;;;;;;;;;21.69;44.46;100395.09;30985494;28;96857;-61
2023/05/02 10:40:23;;;;;;;10.25;5.28;;;;;;;21.49;39.92;100401.72;30981472;28;97062;-64
2023/05/02 10:55:23;;;;;;;9.47;5.47;;;;;;;21.61;38.91;100407.13;30977623;28;97006;-61
2023/05/02 11:10:25;;;;;;;6.90;4.93;;;;;;;21.41;37.69;100410.19;30986529;28;107739;-60
2023/05/02 11:25:33;;;;;;;7.67;4.90;;;;;;;21.21;36.73;100430.34;30979362;28;97387;-60
2023/05/02 11:40:34;;;;;;;8.10;4.40;;;;;;;21.11;35.74;100439.03;30947954;28;97322;-61
2023/05/02 11:55:34;;;;;;;10.10;4.93;;;;;;;21.87;34.60;100451.06;30954018;28;97018;-61
2023/05/02 12:10:36;;;;;;;9.23;4.73;;;;;;;22.64;33.70;100439.81;30978576;28;96921;-62
2023/05/02 12:25:40;;;;;;;5.93;4.23;;;;;;;23.37;32.87;100430.16;30932679;28;98544;-63
2023/05/02 12:40:49;;;;;;;6.70;4.10;;;;;;;23.60;33.59;100451.69;30920724;28;97506;-62
2023/05/02 12:56:01;;;;;;;8.17;3.50;;;;;;;22.76;34.74;100487.84;30906119;28;97479;-62
2023/05/02 13:11:02;;;;;;;8.73;3.50;;;;;;;22.08;36.72;100499.25;30902852;28;97920;-63
2023/05/02 13:26:03;;;;;;;6.83;3.83;;;;;;;21.40;39.04;100500.69;30913524;28;98535;-63
2023/05/02 13:41:04;;;;;;;4.43;3.17;;;;;;;21.19;39.48;100502.91;30897295;28;97070;-62
2023/05/02 13:56:04;;;;;;;4.10;2.50;;;;;;;20.79;39.11;100496.22;30960817;28;96898;-63
2023/05/02 14:11:05;;;;;;;5.23;2.57;;;;;;;20.51;39.33;100504.06;30888388;28;96845;-62
2023/05/02 14:26:05;;;;;;;8.07;2.77;;;;;;;20.53;39.15;100501.94;30849302;28;96744;-64
2023/05/02 14:41:05;;;;;;;5.50;2.70;;;;;;;20.77;38.23;100506.44;30985803;28;100289;-63
2023/05/02 14:56:11;;;;;;;4.63;2.80;;;;;;;21.29;37.23;100513.16;30977598;28;97376;-63
2023/05/02 15:11:11;;;;;;;4.83;3.60;;;;;;;21.00;37.34;100523.81;30989835;28;96779;-64
2023/05/02 15:26:12;;;;;;;6.07;3.17;;;;;;;20.20;37.69;100533.81;30986341;28;97530;-64
2023/05/02 15:41:12;;;;;;;;;;;;;;;18.60;41.81;100555.56;30985573;28;96753;-67
2023/05/02 15:56:13;;;;;;;6.55;5.25;;;;;;;16.53;48.21;100561.72;30983999;28;99255;-65
2023/05/02 16:11:13;;;;;;;8.35;6.70;;;;;;;15.56;52.32;100574.94;30953343;28;97386;-65
2023/05/02 16:26:14;;;;;;;10.45;8.48;;;;;;;15.03;56.65;100590.53;30896784;28;97753;-65
2023/05/02 16:41:14;;;;;;;10.85;8.95;;;;;;;14.86;59.06;100593.44;30950256;28;97806;-66
2023/05/02 16:56:15;;;;;;;11.88;8.82;;;;;;;14.60;60.48;100598.44;30957723;28;97251;-65
2023/05/02 17:11:16;;;;;;;14.48;8.73;;;;;;;14.37;61.59;100618.97;30961423;28;97276;-66
2023/05/02 17:26:16;;;;;;;12.13;8.10;;;;;;;14.58;62.34;100627.31;30964181;28;97617;-67
2023/05/02 17:41:17;;;;;;;7.05;4.78;;;;;;;14.88;59.38;100642.38;30958406;28;98120;-65
2023/05/02 17:56:20;;;;;;;6.85;4.35;;;;;;;15.00;57.13;100661.50;30972025;28;97386;-65
2023/05/02 18:11:22;;;;;;;6.93;4.20;;;;;;;15.00;56.16;100679.47;30984289;28;96916;-65
2023/05/02 18:26:22;;;;;;;8.27;4.93;;;;;;;14.93;55.67;100690.09;30993179;28;96744;-65
2023/05/02 18:41:23;;;;;;;10.35;5.00;;;;;;;14.79;55.60;100713.22;30990674;28;102505;-64
2023/05/02 18:56:24;;;;;;;6.75;4.90;;;;;;;14.59;56.00;100734.34;30981252;28;98004;-66
2023/05/02 19:11:25;;;;;;;6.97;4.23;;;;;;;14.46;56.11;100750.22;30975090;28;97184;-64
2023/05/02 19:26:25;;;;;;;5.47;4.07;;;;;;;14.19;56.48;100776.63;30975880;28;97191;-66
2023/05/02 19:41:25;;;;;;;6.25;3.90;;;;;;;13.99;56.62;100800.34;30973253;28;110809;-66
2023/05/02 19:56:26;;;;;;;5.80;3.47;;;;;;;13.67;56.84;100819.13;30962113;28;98311;-65
2023/05/02 20:11:26;;;;;;;7.35;3.78;;;;;;;13.54;57.08;100824.19;30971181;28;96842;-65
2023/05/02 20:26:30;;;;;;;6.07;4.00;;;;;;;13.20;57.77;100838.66;30967676;28;96854;-65
2023/05/02 20:41:31;;;;;;;9.53;4.10;;;;;;;12.93;58.42;100853.28;30977800;28;97525;-64
2023/05/02 20:56:31;;;;;;;8.10;3.90;;;;;;;12.90;59.43;100850.94;30977877;28;96778;-64
2023/05/02 21:11:31;;;;;;;9.02;4.35;;;;;;;12.89;59.81;100878.69;30978339;28;96831;-65
2023/05/02 21:26:32;;;;;;;7.80;4.10;;;;;;;12.87;59.72;100892.22;30978642;28;105850;-64
2023/05/02 21:41:32;;;;;;;6.15;3.70;;;;;;;12.80;59.82;100908.09;30977162;28;97534;-65
2023/05/02 21:56:32;;;;;;;5.85;4.22;;;;;;;12.72;60.18;100913.44;30975721;28;109505;-65
2023/05/02 22:11:33;;;;;;;6.25;3.95;;;;;;;12.68;60.55;100936.16;30975477;28;96593;-63
2023/05/02 22:26:33;;;;;;;6.32;4.30;;;;;;;12.55;59.94;100944.69;30973382;28;102032;-64
2023/05/02 22:41:33;;;;;;;6.28;4.00;;;;;;;12.32;60.33;100958.66;30973759;28;97095;-64
2023/05/02 22:56:34;;;;;;;7.55;4.00;;;;;;;12.11;60.29;100969.78;30983585;28;115415;-64
2023/05/02 23:11:34;;;;;;;7.03;3.97;;;;;;;11.97;60.62;100979.25;30991540;28;97277;-64
2023/05/02 23:26:34;;;;;;;10.55;4.20;;;;;;;11.87;60.94;100985.66;30989544;28;97800;-65
2023/05/02 23:41:35;;;;;;;9.10;4.35;;;;;;;11.69;61.10;100998.06;30988016;28;96751;-64
2023/05/02 23:56:35;;;;;;;7.10;3.95;;;;;;;11.56;61.55;100994.97;30987766;28;96866;-64
